createdAt,value
2022-10-10T00:00:14.755Z,100.00
2022-10-10T00:01:11.675Z,100.00
2022-10-10T00:02:08.977Z,100.00
2022-10-10T00:03:07.246Z,100.00
2022-10-10T00:04:05.716Z,100.00
2022-10-10T00:05:02.454Z,100.00
2022-10-10T00:05:59.169Z,100.00
2022-10-10T00:06:55.982Z,100.00
2022-10-10T00:07:52.781Z,100.00
2022-10-10T00:08:50.163Z,100.00
2022-10-10T00:09:47.538Z,100.00
2022-10-10T00:10:44.212Z,100.00
2022-10-10T00:11:40.925Z,100.00
2022-10-10T00:12:37.633Z,100.00
2022-10-10T00:13:35.241Z,100.00
2022-10-10T00:14:32.653Z,100.00
2022-10-10T00:15:29.471Z,100.00
2022-10-10T00:16:26.376Z,100.00
2022-10-10T00:17:23.116Z,100.00
2022-10-10T00:18:19.856Z,100.00
2022-10-10T00:19:16.591Z,100.00
2022-10-10T00:20:15.919Z,100.00
2022-10-10T00:21:12.694Z,100.00
2022-10-10T00:22:09.409Z,100.00
2022-10-10T00:23:06.105Z,100.00
2022-10-10T00:24:02.944Z,100.00
2022-10-10T00:24:59.647Z,100.00
2022-10-10T00:25:56.320Z,100.00
2022-10-10T00:26:52.999Z,100.00
2022-10-10T00:27:49.672Z,100.00
2022-10-10T00:28:47.266Z,100.00
2022-10-10T00:29:43.991Z,100.00
2022-10-10T00:30:40.913Z,100.00
2022-10-10T00:31:37.790Z,100.00
2022-10-10T00:32:35.938Z,100.00
2022-10-10T00:33:32.620Z,100.00
2022-10-10T00:34:29.366Z,100.00
2022-10-10T00:35:26.966Z,100.00
2022-10-10T00:36:23.723Z,100.00
2022-10-10T00:37:20.429Z,100.00
2022-10-10T00:38:17.122Z,100.00
2022-10-10T00:39:13.835Z,100.00
2022-10-10T00:40:11.746Z,100.00
2022-10-10T00:41:08.983Z,100.00
2022-10-10T00:42:05.754Z,100.00
2022-10-10T00:43:02.488Z,100.00
2022-10-10T00:44:15.597Z,100.00
2022-10-10T00:45:32.230Z,100.00
2022-10-10T00:46:28.918Z,100.00
2022-10-10T00:47:25.654Z,100.00
2022-10-10T00:48:35.351Z,100.00
2022-10-10T00:49:32.299Z,100.00
2022-10-10T00:50:33.402Z,100.00
2022-10-10T00:51:31.073Z,100.00
2022-10-10T00:52:27.802Z,100.00
2022-10-10T00:53:30.757Z,100.00
2022-10-10T00:54:28.714Z,100.00
2022-10-10T00:55:26.262Z,100.00
2022-10-10T00:56:29.531Z,100.00
2022-10-10T00:57:26.292Z,100.00
2022-10-10T00:58:24.537Z,100.00
2022-10-10T00:59:22.026Z,100.00
2022-10-10T01:00:18.928Z,100.00
2022-10-10T01:01:16.372Z,100.00
2022-10-10T01:02:13.159Z,100.00
2022-10-10T01:03:09.995Z,100.00
2022-10-10T01:04:07.202Z,100.00
2022-10-10T01:05:05.138Z,100.00
2022-10-10T01:06:02.318Z,100.00
2022-10-10T01:07:01.705Z,100.00
2022-10-10T01:08:00.306Z,100.00
2022-10-10T01:08:57.664Z,100.00
2022-10-10T01:10:00.209Z,100.00
2022-10-10T01:11:08.926Z,100.00
2022-10-10T01:12:27.223Z,100.00
2022-10-10T01:13:41.361Z,100.00
2022-10-10T01:14:52.757Z,100.00
2022-10-10T01:15:59.601Z,100.00
2022-10-10T01:17:02.031Z,100.00
2022-10-10T01:18:06.257Z,100.00
2022-10-10T01:19:21.480Z,100.00
2022-10-10T01:20:32.129Z,100.00
2022-10-10T01:22:04.127Z,100.00
2022-10-10T01:23:38.303Z,100.00
2022-10-10T01:24:53.285Z,100.00
2022-10-10T01:26:27.458Z,100.00
2022-10-10T01:27:42.422Z,100.00
2022-10-10T01:28:46.013Z,100.00
2022-10-10T01:29:57.947Z,100.00
2022-10-10T01:30:58.855Z,100.00
2022-10-10T01:32:04.682Z,100.00
2022-10-10T01:33:13.398Z,100.00
2022-10-10T01:34:13.044Z,100.00
2022-10-10T01:35:15.707Z,100.00
2022-10-10T01:36:29.242Z,100.00
2022-10-10T01:37:40.778Z,100.00
2022-10-10T01:39:06.478Z,100.00
2022-10-10T01:40:06.511Z,100.00
2022-10-10T01:41:07.120Z,100.00
2022-10-10T01:42:14.911Z,100.00
2022-10-10T01:43:12.789Z,100.00
2022-10-10T01:44:09.515Z,100.00
2022-10-10T01:45:06.735Z,100.00
2022-10-10T01:46:18.707Z,100.00
2022-10-10T01:47:15.378Z,100.00
2022-10-10T01:48:12.624Z,100.00
2022-10-10T01:49:09.939Z,100.00
2022-10-10T01:50:12.715Z,100.00
2022-10-10T01:51:15.356Z,100.00
2022-10-10T01:52:35.550Z,100.00
2022-10-10T01:53:43.739Z,100.00
2022-10-10T01:55:25.344Z,100.00
2022-10-10T01:56:37.196Z,100.00
2022-10-10T01:58:05.658Z,100.00
2022-10-10T01:59:02.280Z,100.00
2022-10-10T02:00:11.336Z,100.00
2022-10-10T02:01:28.287Z,100.00
2022-10-10T02:02:53.211Z,100.00
2022-10-10T02:04:24.086Z,100.00
2022-10-10T02:05:41.624Z,100.00
2022-10-10T02:07:09.930Z,100.00
2022-10-10T02:08:26.500Z,100.00
2022-10-10T02:09:35.802Z,100.00
2022-10-10T02:10:57.151Z,100.00
2022-10-10T02:11:56.558Z,100.00
2022-10-10T02:12:56.811Z,100.00
2022-10-10T02:14:02.110Z,100.00
2022-10-10T02:15:10.641Z,100.00
2022-10-10T02:16:15.599Z,100.00
2022-10-10T02:17:15.980Z,100.00
2022-10-10T02:18:18.096Z,100.00
2022-10-10T02:19:19.540Z,100.00
2022-10-10T02:20:21.847Z,100.00
2022-10-10T02:21:21.095Z,100.00
2022-10-10T02:22:21.293Z,100.00
2022-10-10T02:23:21.854Z,100.00
2022-10-10T02:24:21.399Z,100.00
2022-10-10T02:25:24.078Z,100.00
2022-10-10T02:26:23.669Z,100.00
2022-10-10T02:27:47.035Z,100.00
2022-10-10T02:28:55.940Z,100.00
2022-10-10T02:29:56.476Z,100.00
2022-10-10T02:30:59.539Z,100.00
2022-10-10T02:32:20.769Z,100.00
2022-10-10T02:33:27.035Z,100.00
2022-10-10T02:34:29.822Z,100.00
2022-10-10T02:35:38.470Z,100.00
2022-10-10T02:36:36.107Z,100.00
2022-10-10T02:37:34.343Z,100.00
2022-10-10T02:38:31.326Z,100.00
2022-10-10T02:39:34.007Z,100.00
2022-10-10T02:40:34.457Z,100.00
2022-10-10T02:41:35.405Z,100.00
2022-10-10T02:42:52.680Z,100.00
2022-10-10T02:43:52.182Z,100.00
2022-10-10T02:44:50.390Z,100.00
2022-10-10T02:45:47.191Z,100.00
2022-10-10T02:46:43.909Z,100.00
2022-10-10T02:47:40.636Z,100.00
2022-10-10T02:48:37.426Z,100.00
2022-10-10T02:49:35.363Z,100.00
2022-10-10T02:50:33.191Z,100.00
2022-10-10T02:51:30.596Z,100.00
2022-10-10T02:52:27.513Z,100.00
2022-10-10T02:53:24.215Z,100.00
2022-10-10T02:54:20.957Z,100.00
2022-10-10T02:55:17.692Z,100.00
2022-10-10T02:56:14.386Z,100.00
2022-10-10T02:57:11.191Z,100.00
2022-10-10T02:58:07.926Z,100.00
2022-10-10T02:59:04.635Z,100.00
2022-10-10T03:00:01.818Z,100.00
2022-10-10T03:00:58.620Z,100.00
2022-10-10T03:01:55.441Z,100.00
2022-10-10T03:02:52.578Z,100.00
2022-10-10T03:03:49.640Z,100.00
2022-10-10T03:04:46.412Z,100.00
2022-10-10T03:05:43.142Z,100.00
2022-10-10T03:06:39.903Z,100.00
2022-10-10T03:07:36.590Z,100.00
2022-10-10T03:08:33.303Z,100.00
2022-10-10T03:09:30.302Z,100.00
2022-10-10T03:10:27.038Z,100.00
2022-10-10T03:11:23.802Z,100.00
2022-10-10T03:12:20.489Z,100.00
2022-10-10T03:13:18.488Z,100.00
2022-10-10T03:14:15.208Z,100.00
2022-10-10T03:15:12.301Z,100.00
2022-10-10T03:16:09.120Z,100.00
2022-10-10T03:17:05.833Z,100.00
2022-10-10T03:18:02.517Z,100.00
2022-10-10T03:18:59.246Z,100.00
2022-10-10T03:19:55.951Z,100.00
2022-10-10T03:20:56.478Z,100.00
2022-10-10T03:21:53.376Z,100.00
2022-10-10T03:22:50.348Z,100.00
2022-10-10T03:23:47.180Z,100.00
2022-10-10T03:24:43.921Z,100.00
2022-10-10T03:25:42.384Z,100.00
2022-10-10T03:26:39.094Z,100.00
2022-10-10T03:27:37.006Z,100.00
2022-10-10T03:28:33.881Z,100.00
2022-10-10T03:29:30.641Z,100.00
2022-10-10T03:30:27.354Z,100.00
2022-10-10T03:31:24.274Z,100.00
2022-10-10T03:32:21.400Z,100.00
2022-10-10T03:33:18.209Z,100.00
2022-10-10T03:34:14.913Z,100.00
2022-10-10T03:35:11.663Z,100.00
2022-10-10T03:36:08.376Z,100.00
2022-10-10T03:37:05.119Z,100.00
2022-10-10T03:38:02.594Z,100.00
2022-10-10T03:38:59.312Z,100.00
2022-10-10T03:39:56.010Z,100.00
2022-10-10T03:40:52.926Z,100.00
2022-10-10T03:41:50.410Z,100.00
2022-10-10T03:42:47.827Z,100.00
2022-10-10T03:43:44.808Z,100.00
2022-10-10T03:44:41.493Z,100.00
2022-10-10T03:45:39.120Z,100.00
2022-10-10T03:46:35.926Z,100.00
2022-10-10T03:47:32.605Z,100.00
2022-10-10T03:48:29.369Z,100.00
2022-10-10T03:49:26.071Z,100.00
2022-10-10T03:50:22.774Z,100.00
2022-10-10T03:51:19.643Z,100.00
2022-10-10T03:52:16.511Z,100.00
2022-10-10T03:53:13.217Z,100.00
2022-10-10T03:54:10.181Z,100.00
2022-10-10T03:55:07.368Z,100.00
2022-10-10T03:56:04.463Z,100.00
2022-10-10T03:57:01.172Z,100.00
2022-10-10T03:57:58.064Z,100.00
2022-10-10T03:58:54.870Z,100.00
2022-10-10T03:59:51.608Z,100.00
2022-10-10T04:01:00.332Z,100.00
2022-10-10T04:01:57.074Z,100.00
2022-10-10T04:02:53.946Z,100.00
2022-10-10T04:03:52.303Z,100.00
2022-10-10T04:04:49.087Z,100.00
2022-10-10T04:05:45.815Z,100.00
2022-10-10T04:06:42.550Z,100.00
2022-10-10T04:07:41.515Z,100.00
2022-10-10T04:08:38.946Z,100.00
2022-10-10T04:09:35.691Z,100.00
2022-10-10T04:10:32.836Z,100.00
2022-10-10T04:11:29.568Z,100.00
2022-10-10T04:12:26.262Z,100.00
2022-10-10T04:13:27.834Z,100.00
2022-10-10T04:14:24.554Z,100.00
2022-10-10T04:15:21.592Z,100.00
2022-10-10T04:16:18.522Z,100.00
2022-10-10T04:17:15.721Z,100.00
2022-10-10T04:18:12.408Z,100.00
2022-10-10T04:19:09.114Z,100.00
2022-10-10T04:20:06.077Z,100.00
2022-10-10T04:21:05.135Z,100.00
2022-10-10T04:22:01.833Z,100.00
2022-10-10T04:22:58.593Z,100.00
2022-10-10T04:23:55.420Z,100.00
2022-10-10T04:24:52.118Z,100.00
2022-10-10T04:25:52.725Z,100.00
2022-10-10T04:26:49.427Z,100.00
2022-10-10T04:27:46.134Z,100.00
2022-10-10T04:28:42.875Z,100.00
2022-10-10T04:29:39.622Z,100.00
2022-10-10T04:30:36.338Z,100.00
2022-10-10T04:31:33.342Z,100.00
2022-10-10T04:32:30.039Z,100.00
2022-10-10T04:33:26.728Z,100.00
2022-10-10T04:34:23.566Z,100.00
2022-10-10T04:35:20.269Z,100.00
2022-10-10T04:36:16.966Z,100.00
2022-10-10T04:37:13.679Z,100.00
2022-10-10T04:38:10.375Z,100.00
2022-10-10T04:39:07.106Z,100.00
2022-10-10T04:40:04.847Z,100.00
2022-10-10T04:41:01.647Z,100.00
2022-10-10T04:41:58.416Z,100.00
2022-10-10T04:42:56.075Z,100.00
2022-10-10T04:43:52.776Z,100.00
2022-10-10T04:44:49.474Z,100.00
2022-10-10T04:45:46.505Z,100.00
2022-10-10T04:46:43.210Z,100.00
2022-10-10T04:47:39.898Z,100.00
2022-10-10T04:48:37.738Z,100.00
2022-10-10T04:49:34.434Z,100.00
2022-10-10T04:50:31.275Z,100.00
2022-10-10T04:51:28.078Z,100.00
2022-10-10T04:52:25.163Z,100.00
2022-10-10T04:53:22.332Z,100.00
2022-10-10T04:54:19.060Z,100.00
2022-10-10T04:55:16.100Z,100.00
2022-10-10T04:56:12.833Z,100.00
2022-10-10T04:57:09.685Z,100.00
2022-10-10T04:58:06.438Z,100.00
2022-10-10T04:59:03.199Z,100.00
2022-10-10T04:59:59.993Z,100.00
2022-10-10T05:00:56.772Z,100.00
2022-10-10T05:01:55.341Z,100.00
2022-10-10T05:02:55.151Z,100.00
2022-10-10T05:03:51.948Z,100.00
2022-10-10T05:04:49.068Z,100.00
2022-10-10T05:05:45.811Z,100.00
2022-10-10T05:06:42.690Z,100.00
2022-10-10T05:07:39.475Z,100.00
2022-10-10T05:08:36.209Z,100.00
2022-10-10T05:09:33.826Z,100.00
2022-10-10T05:10:30.974Z,100.00
2022-10-10T05:11:27.800Z,100.00
2022-10-10T05:12:24.868Z,100.00
2022-10-10T05:13:21.607Z,100.00
2022-10-10T05:14:18.311Z,100.00
2022-10-10T05:15:15.124Z,100.00
2022-10-10T05:16:11.946Z,100.00
2022-10-10T05:17:09.166Z,100.00
2022-10-10T05:18:06.430Z,100.00
2022-10-10T05:19:03.520Z,100.00
2022-10-10T05:20:00.279Z,100.00
2022-10-10T05:21:02.572Z,100.00
2022-10-10T05:22:00.355Z,100.00
2022-10-10T05:22:57.312Z,100.00
2022-10-10T05:23:54.589Z,100.00
2022-10-10T05:24:51.382Z,100.00
2022-10-10T05:25:50.186Z,100.00
2022-10-10T05:26:46.918Z,100.00
2022-10-10T05:27:43.666Z,100.00
2022-10-10T05:28:40.483Z,100.00
2022-10-10T05:29:37.268Z,100.00
2022-10-10T05:30:34.013Z,100.00
2022-10-10T05:31:30.760Z,100.00
2022-10-10T05:32:27.506Z,100.00
2022-10-10T05:33:24.257Z,100.00
2022-10-10T05:34:21.027Z,100.00
2022-10-10T05:35:20.278Z,100.00
2022-10-10T05:36:17.098Z,100.00
2022-10-10T05:37:14.182Z,100.00
2022-10-10T05:38:11.186Z,100.00
2022-10-10T05:39:08.109Z,100.00
2022-10-10T05:40:05.645Z,100.00
2022-10-10T05:41:03.228Z,100.00
2022-10-10T05:41:59.922Z,100.00
2022-10-10T05:42:56.654Z,100.00
2022-10-10T05:43:53.349Z,100.00
2022-10-10T05:44:50.042Z,100.00
2022-10-10T05:45:46.752Z,100.00
2022-10-10T05:46:43.567Z,100.00
2022-10-10T05:47:40.295Z,100.00
2022-10-10T05:48:37.034Z,100.00
2022-10-10T05:49:33.812Z,100.00
2022-10-10T05:50:34.762Z,100.00
2022-10-10T05:51:31.475Z,100.00
2022-10-10T05:52:29.278Z,100.00
2022-10-10T05:53:28.341Z,100.00
2022-10-10T05:54:25.072Z,100.00
2022-10-10T05:55:21.798Z,100.00
2022-10-10T05:56:18.582Z,100.00
2022-10-10T05:57:16.469Z,100.00
2022-10-10T05:58:14.043Z,100.00
2022-10-10T05:59:10.773Z,100.00
2022-10-10T06:00:07.974Z,100.00
2022-10-10T06:01:07.050Z,100.00
2022-10-10T06:02:03.891Z,100.00
2022-10-10T06:03:00.620Z,100.00
2022-10-10T06:03:57.428Z,100.00
2022-10-10T06:04:54.126Z,100.00
2022-10-10T06:05:52.192Z,100.00
2022-10-10T06:06:49.446Z,100.00
2022-10-10T06:08:05.500Z,100.00
2022-10-10T06:09:03.768Z,100.00
2022-10-10T06:10:00.495Z,100.00
2022-10-10T06:11:05.650Z,100.00
2022-10-10T06:12:02.465Z,100.00
2022-10-10T06:12:59.157Z,100.00
2022-10-10T06:13:57.061Z,100.00
2022-10-10T06:14:53.795Z,100.00
2022-10-10T06:15:51.287Z,100.00
2022-10-10T06:16:47.985Z,100.00
2022-10-10T06:17:44.718Z,100.00
2022-10-10T06:18:41.430Z,100.00
2022-10-10T06:19:38.222Z,100.00
2022-10-10T06:20:39.766Z,100.00
2022-10-10T06:21:36.528Z,100.00
2022-10-10T06:22:33.263Z,100.00
2022-10-10T06:23:30.145Z,100.00
2022-10-10T06:24:26.853Z,100.00
2022-10-10T06:25:39.418Z,100.00
2022-10-10T06:26:37.561Z,100.00
2022-10-10T06:27:34.271Z,100.00
2022-10-10T06:28:31.718Z,100.00
2022-10-10T06:29:28.525Z,100.00
2022-10-10T06:30:25.370Z,100.00
2022-10-10T06:31:22.218Z,100.00
2022-10-10T06:32:18.995Z,100.00
2022-10-10T06:33:18.651Z,100.00
2022-10-10T06:34:15.381Z,100.00
2022-10-10T06:35:12.121Z,100.00
2022-10-10T06:36:10.009Z,100.00
2022-10-10T06:37:08.517Z,100.00
2022-10-10T06:38:05.243Z,100.00
2022-10-10T06:39:02.083Z,100.00
2022-10-10T06:39:58.870Z,100.00
2022-10-10T06:40:59.749Z,100.00
2022-10-10T06:41:57.241Z,100.00
2022-10-10T06:42:54.409Z,100.00
2022-10-10T06:43:51.877Z,100.00
2022-10-10T06:44:49.246Z,100.00
2022-10-10T06:45:49.704Z,100.00
2022-10-10T06:46:46.413Z,100.00
2022-10-10T06:47:43.119Z,100.00
2022-10-10T06:48:39.982Z,100.00
2022-10-10T06:49:36.878Z,100.00
2022-10-10T06:50:33.805Z,100.00
2022-10-10T06:51:30.921Z,100.00
2022-10-10T06:52:27.631Z,100.00
2022-10-10T06:53:44.647Z,100.00
2022-10-10T06:54:59.626Z,100.00
2022-10-10T06:56:24.954Z,100.00
2022-10-10T06:57:42.954Z,100.00
2022-10-10T06:58:39.606Z,100.00
2022-10-10T06:59:36.475Z,100.00
2022-10-10T07:00:33.245Z,100.00
2022-10-10T07:01:30.001Z,100.00
2022-10-10T07:02:27.265Z,100.00
2022-10-10T07:03:24.331Z,100.00
2022-10-10T07:04:21.033Z,100.00
2022-10-10T07:05:18.635Z,100.00
2022-10-10T07:06:17.990Z,100.00
2022-10-10T07:07:14.687Z,100.00
2022-10-10T07:08:11.409Z,100.00
2022-10-10T07:09:08.190Z,100.00
2022-10-10T07:10:05.744Z,100.00
2022-10-10T07:11:02.679Z,100.00
2022-10-10T07:11:59.374Z,100.00
2022-10-10T07:12:56.257Z,100.00
2022-10-10T07:13:54.173Z,100.00
2022-10-10T07:14:50.872Z,100.00
2022-10-10T07:15:48.117Z,100.00
2022-10-10T07:16:44.847Z,100.00
2022-10-10T07:17:41.633Z,100.00
2022-10-10T07:18:38.797Z,100.00
2022-10-10T07:19:37.792Z,100.00
2022-10-10T07:20:35.374Z,100.00
2022-10-10T07:21:32.488Z,100.00
2022-10-10T07:22:29.215Z,100.00
2022-10-10T07:23:27.248Z,100.00
2022-10-10T07:24:24.097Z,100.00
2022-10-10T07:25:20.879Z,100.00
2022-10-10T07:26:20.990Z,100.00
2022-10-10T07:27:17.915Z,100.00
2022-10-10T07:28:14.875Z,100.00
2022-10-10T07:29:11.611Z,100.00
2022-10-10T07:30:08.963Z,100.00
2022-10-10T07:31:09.336Z,100.00
2022-10-10T07:32:06.014Z,100.00
2022-10-10T07:33:02.721Z,100.00
2022-10-10T07:33:59.435Z,100.00
2022-10-10T07:34:58.349Z,100.00
2022-10-10T07:35:55.067Z,100.00
2022-10-10T07:36:51.861Z,100.00
2022-10-10T07:37:49.061Z,100.00
2022-10-10T07:38:51.781Z,100.00
2022-10-10T07:39:48.505Z,100.00
2022-10-10T07:40:45.206Z,100.00
2022-10-10T07:41:41.992Z,100.00
2022-10-10T07:42:38.944Z,100.00
2022-10-10T07:43:37.616Z,100.00
2022-10-10T07:44:34.905Z,100.00
2022-10-10T07:45:31.787Z,100.00
2022-10-10T07:46:30.638Z,100.00
2022-10-10T07:47:27.419Z,100.00
2022-10-10T07:48:24.229Z,100.00
2022-10-10T07:49:20.924Z,100.00
2022-10-10T07:50:17.741Z,100.00
2022-10-10T07:51:15.565Z,100.00
2022-10-10T07:52:12.522Z,100.00
2022-10-10T07:53:10.529Z,100.00
2022-10-10T07:54:07.243Z,100.00
2022-10-10T07:55:05.456Z,100.00
2022-10-10T07:56:06.426Z,100.00
2022-10-10T07:57:03.131Z,100.00
2022-10-10T07:58:02.967Z,100.00
2022-10-10T07:59:00.929Z,100.00
2022-10-10T07:59:57.687Z,100.00
2022-10-10T08:01:02.890Z,100.00
2022-10-10T08:01:59.976Z,100.00
2022-10-10T08:02:56.787Z,100.00
2022-10-10T08:03:56.361Z,100.00
2022-10-10T08:04:53.066Z,100.00
2022-10-10T08:05:49.751Z,100.00
2022-10-10T08:06:46.580Z,100.00
2022-10-10T08:07:43.311Z,100.00
2022-10-10T08:08:50.505Z,100.00
2022-10-10T08:09:48.189Z,100.00
2022-10-10T08:10:45.025Z,100.00
2022-10-10T08:11:41.769Z,100.00
2022-10-10T08:12:38.577Z,100.00
2022-10-10T08:13:37.423Z,100.00
2022-10-10T08:14:34.186Z,100.00
2022-10-10T08:15:33.845Z,100.00
2022-10-10T08:16:31.264Z,100.00
2022-10-10T08:17:27.997Z,100.00
2022-10-10T08:18:24.854Z,100.00
2022-10-10T08:19:21.718Z,100.00
2022-10-10T08:20:19.166Z,100.00
2022-10-10T08:21:18.068Z,100.00
2022-10-10T08:22:14.827Z,100.00
2022-10-10T08:23:11.762Z,100.00
2022-10-10T08:24:09.134Z,100.00
2022-10-10T08:25:06.543Z,100.00
2022-10-10T08:26:07.125Z,100.00
2022-10-10T08:27:03.949Z,100.00
2022-10-10T08:28:02.029Z,100.00
2022-10-10T08:28:58.811Z,100.00
2022-10-10T08:29:55.593Z,100.00
2022-10-10T08:30:52.313Z,100.00
2022-10-10T08:31:49.023Z,100.00
2022-10-10T08:32:45.797Z,100.00
2022-10-10T08:33:44.243Z,100.00
2022-10-10T08:34:41.005Z,100.00
2022-10-10T08:35:40.927Z,100.00
2022-10-10T08:36:37.656Z,100.00
2022-10-10T08:37:37.312Z,100.00
2022-10-10T08:38:34.516Z,100.00
2022-10-10T08:39:32.150Z,100.00
2022-10-10T08:40:29.094Z,100.00
2022-10-10T08:41:40.655Z,100.00
2022-10-10T08:42:48.880Z,100.00
2022-10-10T08:43:57.696Z,100.00
2022-10-10T08:45:02.639Z,100.00
2022-10-10T08:46:14.618Z,100.00
2022-10-10T08:47:29.993Z,100.00
2022-10-10T08:48:31.299Z,100.00
2022-10-10T08:49:44.802Z,100.00
2022-10-10T08:50:49.257Z,100.00
2022-10-10T08:51:54.635Z,100.00
2022-10-10T08:53:00.948Z,100.00
2022-10-10T08:54:04.270Z,100.00
2022-10-10T08:55:04.469Z,100.00
2022-10-10T08:56:02.478Z,100.00
2022-10-10T08:57:04.385Z,100.00
2022-10-10T08:58:18.758Z,100.00
2022-10-10T08:59:25.850Z,100.00
2022-10-10T09:00:26.377Z,100.00
2022-10-10T09:02:18.174Z,100.00
2022-10-10T09:03:01.066Z,100.00
2022-10-10T09:04:02.010Z,100.00
2022-10-10T09:04:58.743Z,100.00
2022-10-10T09:06:13.742Z,100.00
2022-10-10T09:07:49.431Z,100.00
2022-10-10T09:09:08.243Z,100.00
2022-10-10T09:10:25.962Z,100.00
2022-10-10T09:11:53.434Z,100.00
2022-10-10T09:13:02.518Z,100.00
2022-10-10T09:14:17.322Z,100.00
2022-10-10T09:15:19.953Z,100.00
2022-10-10T09:16:54.218Z,100.00
2022-10-10T09:18:15.053Z,100.00
2022-10-10T09:19:34.902Z,100.00
2022-10-10T09:20:51.534Z,100.00
2022-10-10T09:21:48.633Z,100.00
2022-10-10T09:23:03.448Z,100.00
2022-10-10T09:24:12.115Z,100.00
2022-10-10T09:25:35.777Z,100.00
2022-10-10T09:26:44.121Z,100.00
2022-10-10T09:27:47.731Z,100.00
2022-10-10T09:29:25.984Z,100.00
2022-10-10T09:30:22.855Z,100.00
2022-10-10T09:31:42.822Z,100.00
2022-10-10T09:32:46.201Z,100.00
2022-10-10T09:34:02.176Z,100.00
2022-10-10T09:35:22.966Z,100.00
2022-10-10T09:36:33.744Z,100.00
2022-10-10T09:37:57.835Z,100.00
2022-10-10T09:39:01.713Z,100.00
2022-10-10T09:40:08.213Z,100.00
2022-10-10T09:41:34.841Z,100.00
2022-10-10T09:42:37.603Z,100.00
2022-10-10T09:43:35.298Z,100.00
2022-10-10T09:44:33.101Z,100.00
2022-10-10T09:45:44.850Z,100.00
2022-10-10T09:46:42.042Z,100.00
2022-10-10T09:47:39.336Z,100.00
2022-10-10T09:48:41.119Z,100.00
2022-10-10T09:49:38.164Z,100.00
2022-10-10T09:50:37.350Z,97.46
2022-10-10T09:51:36.012Z,100.00
2022-10-10T09:52:32.751Z,99.49
2022-10-10T09:53:29.458Z,98.31
2022-10-10T09:54:26.240Z,96.74
2022-10-10T09:55:33.832Z,93.78
2022-10-10T09:56:42.315Z,94.23
2022-10-10T09:57:42.802Z,94.09
2022-10-10T09:58:43.603Z,95.02
2022-10-10T09:59:45.973Z,94.82
2022-10-10T10:00:42.803Z,94.29
2022-10-10T10:01:39.576Z,92.35
2022-10-10T10:02:36.333Z,90.50
2022-10-10T10:03:33.112Z,90.55
2022-10-10T10:04:33.529Z,92.82
2022-10-10T10:05:30.997Z,89.04
2022-10-10T10:06:27.878Z,89.99
2022-10-10T10:07:36.401Z,92.34
2022-10-10T10:08:36.053Z,92.79
2022-10-10T10:09:33.956Z,92.78
2022-10-10T10:10:35.885Z,92.61
2022-10-10T10:11:41.633Z,90.74
2022-10-10T10:12:41.961Z,91.96
2022-10-10T10:13:38.769Z,90.22
2022-10-10T10:14:38.506Z,90.77
2022-10-10T10:15:35.271Z,89.46
2022-10-10T10:16:36.048Z,87.97
2022-10-10T10:17:33.386Z,86.05
2022-10-10T10:18:31.191Z,86.10
2022-10-10T10:19:46.207Z,87.56
2022-10-10T10:20:45.478Z,86.95
2022-10-10T10:21:51.609Z,84.04
2022-10-10T10:22:48.416Z,85.04
2022-10-10T10:23:58.370Z,86.16
2022-10-10T10:24:55.214Z,83.66
2022-10-10T10:26:01.272Z,82.26
2022-10-10T10:27:19.086Z,80.66
2022-10-10T10:28:20.934Z,80.47
2022-10-10T10:29:26.889Z,80.62
2022-10-10T10:30:26.030Z,79.27
2022-10-10T10:31:45.679Z,78.28
2022-10-10T10:33:03.050Z,76.62
2022-10-10T10:34:46.435Z,76.74
2022-10-10T10:35:54.683Z,76.83
2022-10-10T10:37:10.411Z,76.60
2022-10-10T10:38:38.263Z,75.15
2022-10-10T10:40:07.006Z,75.03
2022-10-10T10:41:23.798Z,76.16
2022-10-10T10:42:59.317Z,75.42
2022-10-10T10:44:05.131Z,75.89
2022-10-10T10:45:41.269Z,75.11
2022-10-10T10:47:03.610Z,74.72
2022-10-10T10:48:21.688Z,74.67
2022-10-10T10:49:28.479Z,74.59
2022-10-10T10:50:31.191Z,74.89
2022-10-10T10:51:27.834Z,73.58
2022-10-10T10:52:24.561Z,72.55
2022-10-10T10:53:53.335Z,74.24
2022-10-10T10:55:02.180Z,74.98
2022-10-10T10:56:14.358Z,75.22
2022-10-10T10:57:36.920Z,75.23
2022-10-10T11:01:22.483Z,74.12
2022-10-10T11:01:56.971Z,74.77
2022-10-10T11:03:35.000Z,74.70
2022-10-10T11:05:17.848Z,73.54
2022-10-10T11:06:32.945Z,73.32
2022-10-10T11:08:03.760Z,74.59
2022-10-10T11:09:03.510Z,73.33
2022-10-10T11:10:24.672Z,72.74
2022-10-10T11:11:34.441Z,71.13
2022-10-10T11:12:40.306Z,71.48
2022-10-10T11:13:53.634Z,71.77
2022-10-10T11:15:02.980Z,71.18
2022-10-10T11:16:43.546Z,72.29
2022-10-10T11:17:52.723Z,72.48
2022-10-10T11:19:11.093Z,72.90
2022-10-10T11:20:22.085Z,73.11
2022-10-10T11:21:26.945Z,73.47
2022-10-10T11:22:39.379Z,75.55
2022-10-10T11:23:45.033Z,75.43
2022-10-10T11:24:55.754Z,74.00
2022-10-10T11:26:02.659Z,74.19
2022-10-10T11:27:07.482Z,74.76
2022-10-10T11:28:36.806Z,74.59
2022-10-10T11:29:48.194Z,75.25
2022-10-10T11:30:54.170Z,75.47
2022-10-10T11:32:13.177Z,75.37
2022-10-10T11:33:09.875Z,75.41
2022-10-10T11:34:32.136Z,73.39
2022-10-10T11:35:42.558Z,72.74
2022-10-10T11:36:44.868Z,71.65
2022-10-10T11:37:48.253Z,71.67
2022-10-10T11:39:00.125Z,72.49
2022-10-10T11:40:03.850Z,71.53
2022-10-10T11:41:13.833Z,71.34
2022-10-10T11:42:46.049Z,70.33
2022-10-10T11:43:46.761Z,70.16
2022-10-10T11:44:56.163Z,71.93
2022-10-10T11:46:03.241Z,71.38
2022-10-10T11:47:27.029Z,70.58
2022-10-10T11:48:37.293Z,71.41
2022-10-10T11:50:00.380Z,71.68
2022-10-10T11:51:15.419Z,71.64
2022-10-10T11:52:34.415Z,71.13
2022-10-10T11:53:45.939Z,70.87
2022-10-10T11:55:03.834Z,70.44
2022-10-10T11:56:29.714Z,70.13
2022-10-10T11:57:53.468Z,71.00
2022-10-10T11:59:37.651Z,71.11
2022-10-10T12:00:40.715Z,71.53
2022-10-10T12:01:46.702Z,70.78
2022-10-10T12:02:46.353Z,71.32
2022-10-10T12:03:43.445Z,70.85
2022-10-10T12:04:40.552Z,69.99
2022-10-10T12:05:43.054Z,69.77
2022-10-10T12:06:47.552Z,68.66
2022-10-10T12:07:54.174Z,68.46
2022-10-10T12:08:59.503Z,68.30
2022-10-10T12:10:15.592Z,68.24
2022-10-10T12:11:39.609Z,68.32
2022-10-10T12:12:44.643Z,67.64
2022-10-10T12:13:52.390Z,67.65
2022-10-10T12:14:54.345Z,67.48
2022-10-10T12:15:56.666Z,67.67
2022-10-10T12:16:54.164Z,67.81
2022-10-10T12:17:51.969Z,67.51
2022-10-10T12:19:01.446Z,67.44
2022-10-10T12:20:15.278Z,68.06
2022-10-10T12:21:18.456Z,66.98
2022-10-10T12:22:29.760Z,66.59
2022-10-10T12:23:33.885Z,66.28
2022-10-10T12:24:34.193Z,66.58
2022-10-10T12:25:45.593Z,66.00
2022-10-10T12:26:57.528Z,65.94
2022-10-10T12:28:15.633Z,66.66
2022-10-10T12:29:12.381Z,65.82
2022-10-10T12:30:09.279Z,66.52
2022-10-10T12:31:18.075Z,66.40
2022-10-10T12:32:14.966Z,65.70
2022-10-10T12:33:41.977Z,65.86
2022-10-10T12:34:47.944Z,66.18
2022-10-10T12:35:44.817Z,66.57
2022-10-10T12:36:43.698Z,66.70
2022-10-10T12:38:20.290Z,66.50
2022-10-10T12:39:16.968Z,66.10
2022-10-10T12:40:13.622Z,66.76
2022-10-10T12:41:15.527Z,66.31
2022-10-10T12:42:38.363Z,66.53
2022-10-10T12:43:51.079Z,66.46
2022-10-10T12:44:47.902Z,66.90
2022-10-10T12:45:53.658Z,66.27
2022-10-10T12:47:14.962Z,66.15
2022-10-10T12:48:21.943Z,66.51
2022-10-10T12:49:24.830Z,66.24
2022-10-10T12:50:27.698Z,67.63
2022-10-10T12:51:25.787Z,67.67
2022-10-10T12:52:35.747Z,67.59
2022-10-10T12:53:34.699Z,67.54
2022-10-10T12:54:43.967Z,67.47
2022-10-10T12:56:02.794Z,67.37
2022-10-10T12:57:09.257Z,67.14
2022-10-10T12:58:30.319Z,67.30
2022-10-10T12:59:27.209Z,67.43
2022-10-10T13:00:45.845Z,67.25
2022-10-10T13:01:52.005Z,68.19
2022-10-10T13:02:55.273Z,68.36
2022-10-10T13:03:55.850Z,68.28
2022-10-10T13:04:58.873Z,68.92
2022-10-10T13:06:03.748Z,68.45